createdAt,value
2023-12-23T00:01:11.451Z,95935.16
2023-12-23T00:03:49.095Z,95933.25
2023-12-23T00:06:17.735Z,95940.13
2023-12-23T00:08:46.315Z,95949.42
2023-12-23T00:11:14.877Z,95954.48
2023-12-23T00:13:43.406Z,95965.62
2023-12-23T00:16:12.063Z,95949.17
2023-12-23T00:18:40.683Z,95945.66
2023-12-23T00:21:09.491Z,95954.60
2023-12-23T00:23:38.225Z,95957.98
2023-12-23T00:26:07.953Z,95955.03
2023-12-23T00:28:36.802Z,95949.32
2023-12-23T00:31:05.865Z,95955.08
2023-12-23T00:33:34.670Z,95953.80
2023-12-23T00:36:03.428Z,95957.10
2023-12-23T00:38:32.040Z,95955.22
2023-12-23T00:41:00.564Z,95962.13
2023-12-23T00:43:28.822Z,95951.91
2023-12-23T00:45:57.357Z,95949.75
2023-12-23T00:48:26.072Z,95943.34
2023-12-23T00:50:54.444Z,95946.30
2023-12-23T00:53:27.098Z,95958.88
2023-12-23T00:55:55.726Z,95967.20
2023-12-23T00:58:24.160Z,95965.73
2023-12-23T01:00:52.396Z,95957.34
2023-12-23T01:03:21.123Z,95951.49
2023-12-23T01:05:49.880Z,95945.52
2023-12-23T01:08:18.574Z,95948.52
2023-12-23T01:10:47.081Z,95940.41
2023-12-23T01:13:15.439Z,95942.67
2023-12-23T01:15:43.662Z,95949.64
2023-12-23T01:18:12.196Z,95956.95
2023-12-23T01:20:43.576Z,95941.65
2023-12-23T01:23:12.375Z,95925.33
2023-12-23T01:25:41.729Z,95913.39
2023-12-23T01:28:10.275Z,95914.81
2023-12-23T01:30:38.899Z,95921.05
2023-12-23T01:33:09.270Z,95905.65
2023-12-23T01:35:40.758Z,95892.48
2023-12-23T01:38:09.408Z,95887.79
2023-12-23T01:40:38.703Z,95880.91
2023-12-23T01:43:07.361Z,95866.67
2023-12-23T01:45:36.616Z,95855.29
2023-12-23T01:48:06.972Z,95848.36
2023-12-23T01:50:35.744Z,95842.92
2023-12-23T01:53:04.792Z,95843.98
2023-12-23T01:55:35.071Z,95837.26
2023-12-23T01:58:03.806Z,95837.45
2023-12-23T02:00:32.776Z,95840.36
2023-12-23T02:03:01.526Z,95834.95
2023-12-23T02:05:30.548Z,95821.41
2023-12-23T02:07:59.374Z,95818.77
2023-12-23T02:10:28.605Z,95815.00
2023-12-23T02:13:20.329Z,95815.10
2023-12-23T02:15:50.402Z,95828.73
2023-12-23T02:18:18.972Z,95844.40
2023-12-23T02:20:51.400Z,95838.98
2023-12-23T02:23:20.210Z,95834.20
2023-12-23T02:25:57.528Z,95837.69
2023-12-23T02:28:26.999Z,95835.36
2023-12-23T02:30:57.069Z,95836.45
2023-12-23T02:33:26.304Z,95843.55
2023-12-23T02:35:54.962Z,95845.13
2023-12-23T02:38:24.874Z,95834.64
2023-12-23T02:40:53.306Z,95820.85
2023-12-23T02:43:21.905Z,95810.58
2023-12-23T02:45:50.950Z,95785.67
2023-12-23T02:48:19.402Z,95770.55
2023-12-23T02:50:48.439Z,95778.75
2023-12-23T02:53:17.095Z,95777.07
2023-12-23T02:55:45.602Z,95790.41
2023-12-23T02:58:14.222Z,95794.02
2023-12-23T03:00:42.294Z,95791.57
2023-12-23T03:03:10.877Z,95790.34
2023-12-23T03:05:39.436Z,95803.88
2023-12-23T03:08:08.156Z,95815.43
2023-12-23T03:10:37.013Z,95820.34
2023-12-23T03:13:05.708Z,95816.73
2023-12-23T03:15:34.367Z,95825.04
2023-12-23T03:18:03.148Z,95818.77
2023-12-23T03:20:32.282Z,95818.55
2023-12-23T03:23:00.731Z,95830.91
2023-12-23T03:25:30.459Z,95845.30
2023-12-23T03:27:59.104Z,95852.74
2023-12-23T03:30:27.467Z,95844.83
2023-12-23T03:32:56.668Z,95842.63
2023-12-23T03:35:25.237Z,95829.90
2023-12-23T03:37:53.939Z,95825.61
2023-12-23T03:40:23.253Z,95824.64
2023-12-23T03:42:51.748Z,95809.52
2023-12-23T03:45:22.349Z,95813.56
2023-12-23T03:47:51.660Z,95809.55
2023-12-23T03:50:20.436Z,95809.30
2023-12-23T03:52:49.197Z,95819.68
2023-12-23T03:55:18.156Z,95837.61
2023-12-23T03:57:46.504Z,95841.99
2023-12-23T04:00:16.622Z,95837.94
2023-12-23T04:02:47.765Z,95839.55
2023-12-23T04:05:17.422Z,95839.09
2023-12-23T04:07:49.882Z,95840.20
2023-12-23T04:10:19.315Z,95851.12
2023-12-23T04:12:48.054Z,95844.70
2023-12-23T04:15:16.987Z,95849.23
2023-12-23T04:17:45.799Z,95848.57
2023-12-23T04:20:14.433Z,95832.80
2023-12-23T04:22:46.078Z,95816.52
2023-12-23T04:25:15.773Z,95824.06
2023-12-23T04:27:44.118Z,95828.42
2023-12-23T04:30:13.301Z,95832.79
2023-12-23T04:32:42.499Z,95841.91
2023-12-23T04:35:11.750Z,95834.72
2023-12-23T04:37:43.280Z,95829.27
2023-12-23T04:40:12.574Z,95822.77
2023-12-23T04:42:41.980Z,95821.94
2023-12-23T04:45:11.333Z,95823.77
2023-12-23T04:47:39.869Z,95825.25
2023-12-23T04:50:08.994Z,95839.73
2023-12-23T04:52:37.944Z,95834.91
2023-12-23T04:55:09.799Z,95839.34
2023-12-23T04:57:39.488Z,95850.63
2023-12-23T05:00:08.978Z,95863.05
2023-12-23T05:02:37.458Z,95863.22
2023-12-23T05:05:06.644Z,95864.63
2023-12-23T05:07:35.205Z,95862.96
2023-12-23T05:10:04.530Z,95866.10
2023-12-23T05:12:33.206Z,95866.38
2023-12-23T05:15:02.351Z,95864.35
2023-12-23T05:17:31.112Z,95870.82
2023-12-23T05:20:01.389Z,95875.73
2023-12-23T05:22:29.968Z,95873.89
2023-12-23T05:24:58.742Z,95872.59
2023-12-23T05:27:27.377Z,95863.02
2023-12-23T05:29:57.714Z,95863.30
2023-12-23T05:32:27.823Z,95857.89
2023-12-23T05:34:58.305Z,95856.05
2023-12-23T05:37:27.196Z,95865.55
2023-12-23T05:39:55.575Z,95861.98
2023-12-23T05:42:25.454Z,95864.63
2023-12-23T05:44:54.108Z,95861.05
2023-12-23T05:47:22.929Z,95861.46
2023-12-23T05:49:51.520Z,95866.92
2023-12-23T05:52:19.931Z,95868.98
2023-12-23T05:54:50.661Z,95865.50
2023-12-23T05:57:19.744Z,95862.20
2023-12-23T05:59:48.450Z,95862.14
2023-12-23T06:02:16.823Z,95872.73
2023-12-23T06:04:45.281Z,95869.80
2023-12-23T06:07:14.918Z,95878.24
2023-12-23T06:09:43.540Z,95885.41
2023-12-23T06:12:12.307Z,95894.23
2023-12-23T06:14:41.902Z,95899.29
2023-12-23T06:17:10.659Z,95902.19
2023-12-23T06:19:39.097Z,95906.88
2023-12-23T06:22:09.298Z,95913.66
2023-12-23T06:24:38.152Z,95925.05
2023-12-23T06:27:06.782Z,95930.17
2023-12-23T06:29:35.376Z,95939.45
2023-12-23T06:32:03.823Z,95947.42
2023-12-23T06:34:32.345Z,95955.98
2023-12-23T06:37:00.736Z,95964.35
2023-12-23T06:39:29.315Z,95973.77
2023-12-23T06:41:58.232Z,95971.41
2023-12-23T06:44:27.220Z,95974.84
2023-12-23T06:46:56.385Z,95984.20
2023-12-23T06:49:25.966Z,95996.68
2023-12-23T06:51:55.459Z,95989.15
2023-12-23T06:54:24.090Z,95997.48
2023-12-23T06:56:52.738Z,96000.36
2023-12-23T06:59:21.294Z,96005.14
2023-12-23T07:01:49.819Z,96015.91
2023-12-23T07:04:19.014Z,96015.09
2023-12-23T07:06:47.482Z,96021.56
2023-12-23T07:09:15.880Z,96023.10
2023-12-23T07:11:44.561Z,96027.08
2023-12-23T07:14:13.012Z,96030.48
2023-12-23T07:16:43.121Z,96039.23
2023-12-23T07:19:12.070Z,96044.23
2023-12-23T07:21:40.885Z,96046.95
2023-12-23T07:24:09.698Z,96050.74
2023-12-23T07:26:38.443Z,96044.94
2023-12-23T07:29:07.002Z,96044.32
2023-12-23T07:31:35.723Z,96045.70
2023-12-23T07:34:05.834Z,96051.58
2023-12-23T07:36:35.537Z,96053.73
2023-12-23T07:39:06.761Z,96058.59
2023-12-23T07:41:35.395Z,96061.56
2023-12-23T07:44:04.115Z,96062.58
2023-12-23T07:46:32.888Z,96059.69
2023-12-23T07:49:01.409Z,96066.98
2023-12-23T07:51:30.172Z,96073.25
2023-12-23T07:53:59.163Z,96083.64
2023-12-23T07:56:28.963Z,96088.86
2023-12-23T07:58:59.176Z,96104.14
2023-12-23T08:01:28.249Z,96109.95
2023-12-23T08:03:59.787Z,96109.69
2023-12-23T08:06:28.589Z,96125.98
2023-12-23T08:08:57.088Z,96133.71
2023-12-23T08:11:25.482Z,96152.57
2023-12-23T08:13:54.276Z,96159.80
2023-12-23T08:16:22.608Z,96172.01
2023-12-23T08:18:51.111Z,96179.63
2023-12-23T08:21:19.729Z,96190.15
2023-12-23T08:23:48.459Z,96194.35
2023-12-23T08:26:16.947Z,96194.97
2023-12-23T08:28:46.879Z,96196.77
2023-12-23T08:31:15.896Z,96193.19
2023-12-23T08:33:45.057Z,96182.56
2023-12-23T08:36:14.461Z,96180.86
2023-12-23T08:38:45.423Z,96182.75
2023-12-23T08:41:14.352Z,96178.74
2023-12-23T08:43:43.043Z,96183.98
2023-12-23T08:46:11.695Z,96181.21
2023-12-23T08:48:40.252Z,96185.09
2023-12-23T08:51:09.719Z,96190.90
2023-12-23T08:53:38.711Z,96195.73
2023-12-23T08:56:07.844Z,96199.29
2023-12-23T08:58:36.587Z,96198.04
2023-12-23T09:01:05.515Z,96195.52
2023-12-23T09:03:34.232Z,96192.40
2023-12-23T09:06:02.848Z,96192.59
2023-12-23T09:08:31.555Z,96185.64
2023-12-23T09:11:03.544Z,96186.20
2023-12-23T09:13:32.404Z,96188.02
2023-12-23T09:16:07.042Z,96189.91
2023-12-23T09:18:35.497Z,96185.12
2023-12-23T09:21:04.609Z,96182.55
2023-12-23T09:23:33.115Z,96180.08
2023-12-23T09:26:02.040Z,96177.30
2023-12-23T09:28:31.675Z,96180.77
2023-12-23T09:31:00.330Z,96173.85
2023-12-23T09:33:29.357Z,96176.31
2023-12-23T09:35:57.962Z,96176.86
2023-12-23T09:38:26.357Z,96182.77
2023-12-23T09:40:55.183Z,96181.40
2023-12-23T09:43:24.618Z,96188.81
2023-12-23T09:45:54.047Z,96186.97
2023-12-23T09:48:22.670Z,96186.85
2023-12-23T09:50:51.285Z,96183.89
2023-12-23T09:53:22.599Z,96192.11
2023-12-23T09:55:51.521Z,96197.22
2023-12-23T09:58:19.915Z,96201.56
2023-12-23T10:00:49.196Z,96203.90
2023-12-23T10:03:22.958Z,96203.99
2023-12-23T10:05:53.552Z,96208.02
2023-12-23T10:08:22.905Z,96213.54
2023-12-23T10:10:51.497Z,96222.02
2023-12-23T10:13:20.714Z,96225.69
2023-12-23T10:15:49.762Z,96227.51
2023-12-23T10:18:18.473Z,96228.99
2023-12-23T10:20:47.474Z,96232.17
2023-12-23T10:23:16.227Z,96231.59
2023-12-23T10:25:45.575Z,96228.00
2023-12-23T10:28:17.295Z,96232.91
2023-12-23T10:30:51.662Z,96237.77
2023-12-23T10:33:26.566Z,96234.45
2023-12-23T10:35:59.259Z,96235.97
2023-12-23T10:38:28.831Z,96232.52
2023-12-23T10:41:07.922Z,96235.44
2023-12-23T10:43:37.842Z,96243.89
2023-12-23T10:46:08.623Z,96251.42
2023-12-23T10:48:39.427Z,96246.77
2023-12-23T10:51:09.669Z,96256.25
2023-12-23T10:53:39.289Z,96264.84
2023-12-23T10:56:09.728Z,96263.52
2023-12-23T10:58:41.000Z,96267.95
2023-12-23T11:01:14.610Z,96272.75
2023-12-23T11:03:45.341Z,96279.01
2023-12-23T11:06:15.189Z,96290.25
2023-12-23T11:08:44.426Z,96302.27
2023-12-23T11:11:13.871Z,96328.72
2023-12-23T11:13:43.372Z,96348.14
2023-12-23T11:16:13.383Z,96353.48
2023-12-23T11:18:42.384Z,96344.89
2023-12-23T11:21:20.967Z,96351.92
2023-12-23T11:23:50.169Z,96368.16
2023-12-23T11:26:41.314Z,96360.79
2023-12-23T11:29:16.749Z,96336.93
2023-12-23T11:31:45.262Z,96333.02
2023-12-23T11:34:16.745Z,96343.00
2023-12-23T11:36:47.673Z,96340.21
2023-12-23T11:39:19.904Z,96340.52
2023-12-23T11:41:49.114Z,96344.88
2023-12-23T11:44:19.453Z,96348.84
2023-12-23T11:46:47.883Z,96360.61
2023-12-23T11:49:16.954Z,96367.78
2023-12-23T11:51:46.210Z,96366.00
2023-12-23T11:54:15.441Z,96359.90
2023-12-23T11:56:44.069Z,96364.30
2023-12-23T11:59:12.820Z,96368.17
2023-12-23T12:01:41.345Z,96371.02
2023-12-23T12:04:10.091Z,96372.35
2023-12-23T12:06:39.682Z,96378.02
2023-12-23T12:09:08.522Z,96383.79
2023-12-23T12:11:38.926Z,96381.08
2023-12-23T12:14:08.855Z,96385.33
2023-12-23T12:16:38.996Z,96383.61
2023-12-23T12:19:07.845Z,96389.68
2023-12-23T12:21:36.411Z,96395.98
2023-12-23T12:24:04.832Z,96407.81
2023-12-23T12:26:33.299Z,96418.99
2023-12-23T12:29:01.885Z,96416.84
2023-12-23T12:31:31.177Z,96422.92
2023-12-23T12:33:59.695Z,96424.60
2023-12-23T12:36:28.440Z,96421.74
2023-12-23T12:38:57.193Z,96414.03
2023-12-23T12:41:26.966Z,96419.31
2023-12-23T12:43:56.516Z,96421.73
2023-12-23T12:46:25.386Z,96410.04
2023-12-23T12:48:54.094Z,96412.71
2023-12-23T12:51:23.453Z,96424.92
2023-12-23T12:53:52.171Z,96429.08
2023-12-23T12:56:23.915Z,96439.64
2023-12-23T12:58:52.937Z,96445.27
2023-12-23T13:01:22.717Z,96446.56
2023-12-23T13:03:51.380Z,96449.96
2023-12-23T13:06:20.601Z,96452.70
2023-12-23T13:08:49.072Z,96454.30
2023-12-23T13:11:17.447Z,96456.45
2023-12-23T13:13:46.621Z,96461.52
2023-12-23T13:16:15.681Z,96467.23
2023-12-23T13:18:52.687Z,96472.44
2023-12-23T13:21:25.740Z,96478.05
2023-12-23T13:23:54.960Z,96481.20
2023-12-23T13:26:24.025Z,96485.02
2023-12-23T13:28:53.021Z,96486.55
2023-12-23T13:31:22.353Z,96488.21
2023-12-23T13:33:51.060Z,96481.77
2023-12-23T13:36:19.713Z,96494.83
2023-12-23T13:38:48.388Z,96494.32
2023-12-23T13:41:27.099Z,96493.23
2023-12-23T13:43:56.007Z,96496.29
2023-12-23T13:46:24.737Z,96499.39
2023-12-23T13:48:53.831Z,96510.29
2023-12-23T13:51:22.469Z,96509.02
2023-12-23T13:53:51.294Z,96509.60
2023-12-23T13:56:21.238Z,96517.54
2023-12-23T13:58:49.877Z,96533.81
2023-12-23T14:01:18.676Z,96529.02
2023-12-23T14:03:47.119Z,96523.96
2023-12-23T14:06:16.197Z,96526.33
2023-12-23T14:08:44.632Z,96531.63
2023-12-23T14:11:13.028Z,96536.59
2023-12-23T14:13:41.793Z,96545.14
2023-12-23T14:16:10.489Z,96540.35
2023-12-23T14:18:39.250Z,96531.10
2023-12-23T14:21:08.889Z,96533.77
2023-12-23T14:23:37.749Z,96535.13
2023-12-23T14:26:06.608Z,96538.02
2023-12-23T14:28:36.580Z,96547.66
2023-12-23T14:31:05.532Z,96547.56
2023-12-23T14:33:34.347Z,96551.05
2023-12-23T14:36:03.750Z,96552.31
2023-12-23T14:38:32.317Z,96554.09
2023-12-23T14:41:02.188Z,96552.15
2023-12-23T14:43:30.888Z,96547.30
2023-12-23T14:45:59.398Z,96550.83
2023-12-23T14:48:27.735Z,96551.38
2023-12-23T14:50:56.628Z,96554.25
2023-12-23T14:53:24.922Z,96552.23
2023-12-23T14:55:53.686Z,96553.33
2023-12-23T14:58:23.014Z,96553.23
2023-12-23T15:00:51.737Z,96551.68
2023-12-23T15:03:20.188Z,96555.84
2023-12-23T15:05:48.594Z,96557.69
2023-12-23T15:08:17.370Z,96552.96
2023-12-23T15:10:46.267Z,96551.02
2023-12-23T15:13:20.769Z,96550.13
2023-12-23T15:15:49.547Z,96552.52
2023-12-23T15:18:18.058Z,96562.02
2023-12-23T15:20:46.543Z,96563.71
2023-12-23T15:23:15.674Z,96569.85
2023-12-23T15:25:44.211Z,96574.48
2023-12-23T15:28:12.798Z,96567.63
2023-12-23T15:30:42.432Z,96567.13
2023-12-23T15:33:10.946Z,96566.61
2023-12-23T15:35:39.632Z,96569.15
2023-12-23T15:38:08.415Z,96562.14
2023-12-23T15:40:36.994Z,96555.13
2023-12-23T15:43:05.660Z,96556.98
2023-12-23T15:45:34.352Z,96552.94
2023-12-23T15:48:05.110Z,96554.98
2023-12-23T15:50:33.816Z,96559.27
2023-12-23T15:53:02.928Z,96563.18
2023-12-23T15:55:33.893Z,96570.33
2023-12-23T15:58:05.733Z,96566.67
2023-12-23T16:00:34.412Z,96562.92
2023-12-23T16:03:04.036Z,96567.86
2023-12-23T16:05:32.865Z,96566.94
2023-12-23T16:08:04.710Z,96565.36
2023-12-23T16:10:33.676Z,96569.97
2023-12-23T16:13:02.146Z,96567.02
2023-12-23T16:15:30.698Z,96569.04
2023-12-23T16:17:59.761Z,96562.84
2023-12-23T16:20:28.502Z,96565.91
2023-12-23T16:22:56.807Z,96566.43
2023-12-23T16:25:25.145Z,96566.74
2023-12-23T16:27:53.819Z,96566.39
2023-12-23T16:30:22.334Z,96567.56
2023-12-23T16:32:52.613Z,96562.27
2023-12-23T16:35:21.464Z,96559.00
2023-12-23T16:37:50.286Z,96559.17
2023-12-23T16:40:18.760Z,96558.85
2023-12-23T16:42:47.490Z,96550.70
2023-12-23T16:45:17.294Z,96549.70
2023-12-23T16:47:46.274Z,96552.86
2023-12-23T16:50:16.399Z,96555.33
2023-12-23T16:52:45.472Z,96560.50
2023-12-23T16:55:14.430Z,96569.54
2023-12-23T16:57:42.868Z,96579.45
2023-12-23T17:00:12.219Z,96586.84
2023-12-23T17:02:40.594Z,96585.73
2023-12-23T17:05:10.339Z,96585.44
2023-12-23T17:07:39.040Z,96585.98
2023-12-23T17:10:08.339Z,96591.73
2023-12-23T17:12:36.872Z,96602.87
2023-12-23T17:15:06.079Z,96605.19
2023-12-23T17:17:34.670Z,96602.92
2023-12-23T17:20:06.223Z,96612.81
2023-12-23T17:22:34.664Z,96605.02
2023-12-23T17:25:02.945Z,96602.56
2023-12-23T17:27:31.375Z,96610.55
2023-12-23T17:30:01.342Z,96616.23
2023-12-23T17:32:30.672Z,96621.72
2023-12-23T17:34:59.573Z,96623.33
2023-12-23T17:37:28.141Z,96622.08
2023-12-23T17:39:56.489Z,96624.96
2023-12-23T17:42:25.680Z,96630.14
2023-12-23T17:44:55.387Z,96636.83
2023-12-23T17:47:26.676Z,96642.16
2023-12-23T17:49:55.716Z,96645.77
2023-12-23T17:52:24.549Z,96651.77
2023-12-23T17:54:53.423Z,96652.88
2023-12-23T17:57:21.816Z,96654.73
2023-12-23T17:59:50.336Z,96651.96
2023-12-23T18:02:21.431Z,96650.80
2023-12-23T18:04:49.910Z,96658.86
2023-12-23T18:07:18.324Z,96661.96
2023-12-23T18:09:46.834Z,96666.92
2023-12-23T18:12:15.254Z,96674.44
2023-12-23T18:14:43.937Z,96680.38
2023-12-23T18:17:12.411Z,96683.45
2023-12-23T18:19:40.918Z,96688.39
2023-12-23T18:22:09.247Z,96693.58
2023-12-23T18:24:38.103Z,96693.81
2023-12-23T18:27:07.046Z,96703.04
2023-12-23T18:29:35.812Z,96710.65
2023-12-23T18:32:04.625Z,96718.98
2023-12-23T18:34:34.797Z,96719.36
2023-12-23T18:37:03.399Z,96728.77
2023-12-23T18:39:31.984Z,96731.05
2023-12-23T18:42:00.747Z,96729.73
2023-12-23T18:44:29.241Z,96722.28
2023-12-23T18:46:57.771Z,96724.86
2023-12-23T18:49:26.070Z,96721.66
2023-12-23T18:51:54.847Z,96727.56
2023-12-23T18:54:23.267Z,96736.11
2023-12-23T18:56:51.785Z,96734.73
2023-12-23T18:59:20.651Z,96730.42
2023-12-23T19:01:49.604Z,96724.77
2023-12-23T19:04:18.217Z,96728.53
2023-12-23T19:06:46.836Z,96727.32
2023-12-23T19:09:15.346Z,96723.45
2023-12-23T19:11:43.826Z,96729.66
2023-12-23T19:14:12.164Z,96728.15
2023-12-23T19:16:40.659Z,96724.80
2023-12-23T19:19:09.398Z,96727.02
2023-12-23T19:21:43.675Z,96721.05
2023-12-23T19:24:14.444Z,96724.45
2023-12-23T19:26:42.954Z,96718.49
2023-12-23T19:29:12.055Z,96722.64
2023-12-23T19:31:42.167Z,96720.29
2023-12-23T19:34:10.892Z,96718.41
2023-12-23T19:36:39.686Z,96720.27
2023-12-23T19:39:08.461Z,96718.66
2023-12-23T19:41:37.049Z,96717.65
2023-12-23T19:44:08.282Z,96715.79
2023-12-23T19:46:37.729Z,96713.63
2023-12-23T19:49:06.254Z,96715.64
2023-12-23T19:51:35.013Z,96720.44
2023-12-23T19:54:05.608Z,96723.96
2023-12-23T19:56:34.338Z,96722.09
2023-12-23T19:59:05.409Z,96720.97
2023-12-23T20:01:34.165Z,96721.34
2023-12-23T20:04:03.146Z,96721.80
2023-12-23T20:06:33.201Z,96722.13
2023-12-23T20:09:04.387Z,96720.84
2023-12-23T20:11:32.971Z,96717.04
2023-12-23T20:14:03.757Z,96716.02
2023-12-23T20:16:32.382Z,96725.46
2023-12-23T20:19:00.818Z,96728.58
2023-12-23T20:21:29.324Z,96731.34
2023-12-23T20:23:57.865Z,96729.08
2023-12-23T20:26:26.289Z,96735.45
2023-12-23T20:28:54.916Z,96729.24
2023-12-23T20:31:23.610Z,96735.50
2023-12-23T20:33:52.254Z,96734.76
2023-12-23T20:36:22.502Z,96732.50
2023-12-23T20:38:52.364Z,96738.30
2023-12-23T20:41:20.814Z,96743.95
2023-12-23T20:43:49.476Z,96743.84
2023-12-23T20:46:18.066Z,96746.77
2023-12-23T20:48:47.563Z,96751.27
2023-12-23T20:51:16.252Z,96753.38
2023-12-23T20:53:46.977Z,96751.90
2023-12-23T20:56:22.952Z,96757.11
2023-12-23T20:58:54.514Z,96757.13
2023-12-23T21:01:26.413Z,96763.00
2023-12-23T21:03:56.141Z,96759.35
2023-12-23T21:06:25.082Z,96766.45
2023-12-23T21:08:53.639Z,96764.84
2023-12-23T21:11:22.248Z,96761.00
2023-12-23T21:13:51.151Z,96762.80
2023-12-23T21:16:20.156Z,96762.38
2023-12-23T21:18:49.462Z,96765.07
2023-12-23T21:21:18.288Z,96771.41
2023-12-23T21:23:46.553Z,96765.55
2023-12-23T21:26:21.520Z,96762.36
2023-12-23T21:28:50.277Z,96764.52
2023-12-23T21:31:18.899Z,96764.95
2023-12-23T21:33:47.367Z,96767.80
2023-12-23T21:36:16.106Z,96770.55
2023-12-23T21:38:44.640Z,96778.95
2023-12-23T21:41:13.121Z,96788.23
2023-12-23T21:43:41.805Z,96785.30
2023-12-23T21:46:10.476Z,96785.81
2023-12-23T21:48:40.203Z,96791.67
2023-12-23T21:51:09.360Z,96787.08
2023-12-23T21:53:37.632Z,96785.13
2023-12-23T21:56:07.339Z,96789.81
2023-12-23T21:58:36.281Z,96788.23
2023-12-23T22:01:08.053Z,96793.98
2023-12-23T22:03:36.832Z,96798.07
2023-12-23T22:06:06.395Z,96802.35
2023-12-23T22:08:34.983Z,96800.98
2023-12-23T22:11:03.646Z,96799.84
2023-12-23T22:13:31.935Z,96800.28
2023-12-23T22:16:01.067Z,96798.23
2023-12-23T22:18:29.644Z,96800.63
2023-12-23T22:20:58.412Z,96806.61
2023-12-23T22:23:26.926Z,96805.58
2023-12-23T22:25:55.432Z,96807.28
2023-12-23T22:28:23.584Z,96815.99
2023-12-23T22:30:52.130Z,96824.19
2023-12-23T22:33:20.939Z,96824.17
2023-12-23T22:35:49.526Z,96825.91
2023-12-23T22:38:18.428Z,96825.48
2023-12-23T22:40:47.076Z,96827.45
2023-12-23T22:43:15.461Z,96830.30
2023-12-23T22:45:43.813Z,96827.73
2023-12-23T22:48:12.494Z,96827.71
2023-12-23T22:50:43.150Z,96835.23
2023-12-23T22:53:13.015Z,96838.79
2023-12-23T22:55:41.584Z,96844.09
2023-12-23T22:58:10.383Z,96847.27
2023-12-23T23:00:38.836Z,96849.75
2023-12-23T23:03:07.641Z,96850.27
2023-12-23T23:05:36.740Z,96856.59
2023-12-23T23:08:07.400Z,96858.15
2023-12-23T23:10:36.970Z,96860.20
2023-12-23T23:13:05.624Z,96866.40
2023-12-23T23:15:34.437Z,96872.23
2023-12-23T23:18:02.924Z,96875.91
2023-12-23T23:20:31.789Z,96879.20
2023-12-23T23:23:00.501Z,96882.05
2023-12-23T23:25:29.689Z,96887.02
2023-12-23T23:27:58.193Z,96887.95
2023-12-23T23:30:26.651Z,96887.09
2023-12-23T23:32:55.271Z,96890.60
2023-12-23T23:35:24.187Z,96895.02
2023-12-23T23:37:52.794Z,96892.77
2023-12-23T23:40:21.567Z,96897.23
2023-12-23T23:42:49.996Z,96897.63
2023-12-23T23:45:18.603Z,96899.34
2023-12-23T23:47:46.974Z,96904.66
2023-12-23T23:50:16.007Z,96912.91
2023-12-23T23:52:45.477Z,96913.70
2023-12-23T23:55:14.067Z,96913.17
2023-12-23T23:57:42.839Z,96921.07
